For GOD so loved the world that HE gave HIS one and only SON, that whoever believes in HIM shall not perish but have eternal life.


Thunder radar more information blitzortung!


Rain radar more information rain snow radar



Weather Underground History page Text

Daily Summary for June 18, 2018 Units:  English    Metric   Both
« Previous Day
Next Day »
Daily Weekly Monthly Yearly Custom
  Current: High: Low: Average:
Temperature: 78.9 °F TemperatureF °F 68.1 °F 74.9 °F
Dew Point: 71.8 °F DewpointF °F 64.5 °F 68.2 °F
Humidity: 79 % Humidity % 73 % 79 %
Wind Speed: 0.4 mph WindSpeedMPH mph 0.0 mph 0.7 mph
Wind Gust: 2.3 mph WindSpeedGustMPH mph - -
Wind:West - - SSW
Pressure: 29.91 in PressureIn in 29.91 in -
Precipitation: 0.00 in      
Historical Graphs
 
 
Tabular Data for June 18, 2018
Time Temperature Dew Point Pressure Wind Wind Speed Wind Gust Humidity Rainfall Rate (Hourly)
TemperatureF °F DewpointF °F PressureIn in Calm     Humidity % HourlyPrecipIn in
00:04 68.3 °F 64.6 °F 29.96 in Calm     88 % 0.00 in
00:09 68.2 °F 64.5 °F 29.96 in Calm     88 % 0.00 in
00:14 68.2 °F 64.5 °F 29.97 in Calm     88 % 0.00 in
00:19 68.2 °F 64.5 °F 29.96 in Calm     88 % 0.00 in
00:24 68.1 °F 64.7 °F 29.96 in Calm     89 % 0.00 in
00:29 68.2 °F 64.8 °F 29.96 in Calm     89 % 0.00 in
00:34 68.4 °F 65.4 °F 29.96 in WNW 0.1 mph 1.2 mph 90 % 0.00 in
00:39 68.6 °F 65.5 °F 29.96 in Calm   1.0 mph 90 % 0.00 in
00:44 68.9 °F 66.2 °F 29.96 in WNW 0.4 mph 1.2 mph 91 % 0.00 in
00:49 69.1 °F 66.4 °F 29.96 in WNW 0.2 mph 1.2 mph 91 % 0.00 in
00:54 69.4 °F 66.3 °F 29.96 in WNW 0.3 mph   90 % 0.00 in
00:59 69.6 °F 66.5 °F 29.96 in WNW 0.1 mph   90 % 0.00 in
01:04 69.8 °F 66.7 °F 29.96 in WNW 0.2 mph   90 % 0.00 in
01:09 69.9 °F 66.5 °F 29.96 in Calm     89 % 0.00 in
01:14 70.0 °F 66.6 °F 29.96 in Calm     89 % 0.00 in
01:19 70.0 °F 66.6 °F 29.96 in WNW 0.2 mph 1.2 mph 89 % 0.00 in
01:24 70.2 °F 66.8 °F 29.96 in Calm     89 % 0.00 in
01:29 70.3 °F 66.6 °F 29.96 in WNW 0.1 mph 1.2 mph 88 % 0.00 in
01:34 70.5 °F 66.8 °F 29.96 in WNW 0.3 mph 2.3 mph 88 % 0.00 in
01:39 70.7 °F 67.0 °F 29.96 in WNW 0.1 mph 1.2 mph 88 % 0.00 in
01:44 71.0 °F 67.3 °F 29.96 in WNW 0.2 mph 2.3 mph 88 % 0.00 in
01:49 71.3 °F 67.2 °F 29.96 in WNW 0.3 mph 1.2 mph 87 % 0.00 in
01:54 71.7 °F 67.3 °F 29.95 in South 1.3 mph 3.5 mph 86 % 0.00 in
01:59 72.2 °F 67.8 °F 29.95 in South 0.9 mph 2.3 mph 86 % 0.00 in
02:04 72.6 °F 67.8 °F 29.95 in South 1.4 mph 3.0 mph 85 % 0.00 in
02:09 73.0 °F 67.9 °F 29.95 in South 0.2 mph 2.3 mph 84 % 0.00 in
02:14 73.4 °F 67.9 °F 29.95 in South 0.8 mph 2.0 mph 83 % 0.00 in
02:19 73.8 °F 68.0 °F 29.95 in SSE 0.3 mph 3.5 mph 82 % 0.00 in
02:24 74.2 °F 68.3 °F 29.95 in SSE 1.1 mph 2.0 mph 82 % 0.00 in
02:29 74.6 °F 68.4 °F 29.94 in SSE 1.0 mph 2.3 mph 81 % 0.00 in
02:34 75.0 °F 68.4 °F 29.95 in SSW 0.2 mph 1.0 mph 80 % 0.00 in
02:39 75.3 °F 68.3 °F 29.95 in Calm   3.5 mph 79 % 0.00 in
02:44 75.7 °F 68.7 °F 29.94 in SW 1.2 mph 3.5 mph 79 % 0.00 in
02:49 76.1 °F 68.7 °F 29.94 in SSE 2.5 mph 4.6 mph 78 % 0.00 in
02:54 76.5 °F 68.7 °F 29.94 in South 1.4 mph 3.5 mph 77 % 0.00 in
02:59 76.8 °F 68.7 °F 29.94 in SSE 0.5 mph 1.2 mph 76 % 0.00 in
03:04 77.2 °F 68.7 °F 29.94 in SE 1.0 mph 3.5 mph 75 % 0.00 in
03:09 77.4 °F 68.9 °F 29.94 in South 3.1 mph 4.0 mph 75 % 0.00 in
03:14 77.7 °F 68.7 °F 29.93 in SSE 2.2 mph 4.6 mph 74 % 0.00 in
03:19 78.0 °F 69.0 °F 29.93 in SW 1.2 mph 5.8 mph 74 % 0.00 in
03:24 78.3 °F 69.3 °F 29.93 in South 4.5 mph 10.4 mph 74 % 0.00 in
03:29 78.7 °F 69.3 °F 29.93 in SW 2.1 mph 4.6 mph 73 % 0.00 in
03:34 79.0 °F 69.6 °F 29.93 in SSE 1.2 mph 3.5 mph 73 % 0.00 in
03:39 79.2 °F 69.8 °F 29.93 in WSW 0.6 mph 3.5 mph 73 % 0.00 in
03:44 79.4 °F 70.0 °F 29.93 in South 0.4 mph 4.6 mph 73 % 0.00 in
03:49 79.4 °F 70.0 °F 29.92 in WNW 1.3 mph 3.5 mph 73 % 0.00 in
03:54 79.4 °F 70.0 °F 29.92 in SW 1.2 mph 1.0 mph 73 % 0.00 in
03:59 79.4 °F 70.0 °F 29.92 in SSW 1.1 mph 2.3 mph 73 % 0.00 in
04:04 79.4 °F 70.0 °F 29.92 in South 1.3 mph 4.0 mph 73 % 0.00 in
04:09 79.4 °F 70.0 °F 29.92 in WSW 0.1 mph 1.2 mph 73 % 0.00 in
04:14 79.3 °F 69.9 °F 29.92 in SSW 0.5 mph 3.5 mph 73 % 0.00 in
04:19 79.2 °F 69.8 °F 29.92 in South 0.3 mph 1.2 mph 73 % 0.00 in
04:24 79.2 °F 69.8 °F 29.92 in West 1.2 mph 3.5 mph 73 % 0.00 in
04:29 79.2 °F 69.8 °F 29.92 in South 0.8 mph 4.0 mph 73 % 0.00 in
04:34 79.2 °F 69.8 °F 29.92 in SSE 2.2 mph 2.3 mph 73 % 0.00 in
04:39 79.2 °F 69.8 °F 29.91 in South 1.0 mph 2.3 mph 73 % 0.00 in
04:44 79.1 °F 70.1 °F 29.91 in SSE 0.1 mph 1.2 mph 74 % 0.00 in
04:49 79.0 °F 70.0 °F 29.91 in SSW 1.0 mph 3.5 mph 74 % 0.00 in
04:54 78.9 °F 69.9 °F 29.91 in South 0.1 mph 1.2 mph 74 % 0.00 in
04:59 78.8 °F 69.8 °F 29.91 in SE 0.2 mph 1.0 mph 74 % 0.00 in
05:04 78.7 °F 69.7 °F 29.91 in SSE 0.3 mph 3.5 mph 74 % 0.00 in
05:09 78.5 °F 69.9 °F 29.91 in SSW 0.2 mph 1.2 mph 75 % 0.00 in
05:14 78.4 °F 69.8 °F 29.91 in SSE 1.4 mph 3.5 mph 75 % 0.00 in
05:19 78.3 °F 69.7 °F 29.91 in South 0.2 mph 2.3 mph 75 % 0.00 in
05:24 78.2 °F 70.0 °F 29.91 in SSW 1.1 mph 1.2 mph 76 % 0.00 in
05:29 78.2 °F 70.0 °F 29.91 in South 0.9 mph 2.3 mph 76 % 0.00 in
05:34 78.1 °F 69.9 °F 29.91 in WNW 0.8 mph 2.3 mph 76 % 0.00 in
05:39 78.1 °F 70.3 °F 29.91 in Calm   3.5 mph 77 % 0.00 in
05:44 78.2 °F 70.4 °F 29.91 in SW 0.7 mph 2.3 mph 77 % 0.00 in
05:49 78.2 °F 70.4 °F 29.91 in SE 0.1 mph 1.2 mph 77 % 0.00 in
05:54 78.2 °F 70.4 °F 29.92 in East 0.4 mph 1.2 mph 77 % 0.00 in
05:59 78.2 °F 70.4 °F 29.91 in East 0.2 mph 1.2 mph 77 % 0.00 in
06:04 78.3 °F 70.5 °F 29.91 in SSE 0.6 mph 2.3 mph 77 % 0.00 in
06:09 78.3 °F 70.5 °F 29.91 in SSE 0.5 mph 3.5 mph 77 % 0.00 in
06:14 78.3 °F 70.5 °F 29.91 in SE 0.3 mph 2.3 mph 77 % 0.00 in
06:19 78.3 °F 70.5 °F 29.92 in South 0.4 mph   77 % 0.00 in
06:24 78.3 °F 70.5 °F 29.91 in Calm     77 % 0.00 in
06:29 78.3 °F 70.9 °F 29.91 in South 0.3 mph 1.2 mph 78 % 0.00 in
06:34 78.3 °F 70.9 °F 29.91 in South 0.2 mph 1.2 mph 78 % 0.00 in
06:39 78.3 °F 70.9 °F 29.91 in South 1.9 mph 4.0 mph 78 % 0.00 in
06:44 78.3 °F 70.9 °F 29.91 in SW 0.9 mph 3.5 mph 78 % 0.00 in
06:49 78.3 °F 70.9 °F 29.91 in Calm   3.5 mph 78 % 0.00 in
06:54 78.3 °F 70.9 °F 29.91 in SSW 0.7 mph 2.0 mph 78 % 0.00 in
06:59 78.4 °F 71.0 °F 29.91 in NNE 0.5 mph 3.5 mph 78 % 0.00 in
07:04 78.5 °F 71.4 °F 29.91 in West 1.2 mph 1.2 mph 79 % 0.00 in
07:09 78.6 °F 71.5 °F 29.91 in WSW 1.9 mph 2.3 mph 79 % 0.00 in
07:14 78.6 °F 71.2 °F 29.91 in WNW 0.9 mph 3.5 mph 78 % 0.00 in
07:19 78.7 °F 71.6 °F 29.91 in WNW 0.8 mph 1.2 mph 79 % 0.00 in
07:24 78.7 °F 71.6 °F 29.91 in WNW 1.2 mph 2.0 mph 79 % 0.00 in
07:29 78.8 °F 71.7 °F 29.91 in SW 0.2 mph 2.3 mph 79 % 0.00 in
07:34 78.8 °F 71.7 °F 29.91 in WSW 0.8 mph 4.6 mph 79 % 0.00 in
07:39 78.9 °F 71.8 °F 29.91 in West 0.4 mph 2.3 mph 79 % 0.00 in
Bullis Road Weather
Compliments of Weather Underground - 2.75 mb

Script developed by  Jim McMurry - jmcmurry@mwt.net Adapted for the template by  Wim van der Kuil - Leuven-Template.eu